sensor_id;sensor_type;location;lat;lon;timestamp;pressure;altitude;pressure_sealevel;temperature;humidity
31717;BME280;18301;51.076;17.046;2023-12-20T00:02:27;99620.06;;;7.86;92.80
31717;BME280;18301;51.076;17.046;2023-12-20T00:07:29;99608.34;;;7.87;92.75
31717;BME280;18301;51.076;17.046;2023-12-20T00:12:30;99609.56;;;7.83;93.16
31717;BME280;18301;51.076;17.046;2023-12-20T00:17:32;99592.22;;;7.87;92.93
31717;BME280;18301;51.076;17.046;2023-12-20T00:22:33;99601.75;;;7.91;92.86
31717;BME280;18301;51.076;17.046;2023-12-20T00:27:35;99605.44;;;7.90;93.39
31717;BME280;18301;51.076;17.046;2023-12-20T00:32:36;99605.81;;;7.97;93.12
31717;BME280;18301;51.076;17.046;2023-12-20T00:37:38;99604.50;;;8.02;92.67
31717;BME280;18301;51.076;17.046;2023-12-20T00:42:40;99597.97;;;7.82;93.39
31717;BME280;18301;51.076;17.046;2023-12-20T00:47:41;99587.16;;;7.95;92.87
31717;BME280;18301;51.076;17.046;2023-12-20T00:52:43;99582.63;;;7.96;93.35
31717;BME280;18301;51.076;17.046;2023-12-20T00:57:45;99584.63;;;7.81;95.59
31717;BME280;18301;51.076;17.046;2023-12-20T01:02:47;99580.72;;;7.74;94.73
31717;BME280;18301;51.076;17.046;2023-12-20T01:07:51;99581.22;;;7.79;95.12
31717;BME280;18301;51.076;17.046;2023-12-20T01:12:52;99578.72;;;7.89;94.18
31717;BME280;18301;51.076;17.046;2023-12-20T01:17:54;99578.31;;;7.82;94.58
31717;BME280;18301;51.076;17.046;2023-12-20T01:22:55;99567.06;;;7.77;95.96
31717;BME280;18301;51.076;17.046;2023-12-20T01:27:57;99582.94;;;7.80;94.84
31717;BME280;18301;51.076;17.046;2023-12-20T01:33:00;99570.06;;;7.72;95.44
31717;BME280;18301;51.076;17.046;2023-12-20T01:38:03;99556.31;;;7.77;95.38
31717;BME280;18301;51.076;17.046;2023-12-20T01:43:08;99559.28;;;7.61;96.40
31717;BME280;18301;51.076;17.046;2023-12-20T01:48:10;99552.63;;;7.67;96.64
31717;BME280;18301;51.076;17.046;2023-12-20T01:53:13;99522.88;;;7.57;96.95
31717;BME280;18301;51.076;17.046;2023-12-20T01:58:15;99519.41;;;7.68;97.18
31717;BME280;18301;51.076;17.046;2023-12-20T02:03:18;99529.06;;;7.70;97.59
31717;BME280;18301;51.076;17.046;2023-12-20T02:08:20;99523.31;;;7.64;97.29
31717;BME280;18301;51.076;17.046;2023-12-20T02:13:21;99525.88;;;7.65;98.18
31717;BME280;18301;51.076;17.046;2023-12-20T02:18:23;99527.75;;;7.76;97.31
31717;BME280;18301;51.076;17.046;2023-12-20T02:23:25;99523.34;;;7.75;98.08
31717;BME280;18301;51.076;17.046;2023-12-20T02:28:27;99519.47;;;7.79;97.85
31717;BME280;18301;51.076;17.046;2023-12-20T02:33:29;99512.34;;;7.78;98.54
31717;BME280;18301;51.076;17.046;2023-12-20T02:38:30;99513.34;;;7.77;98.34
31717;BME280;18301;51.076;17.046;2023-12-20T02:43:32;99505.78;;;7.82;98.69
31717;BME280;18301;51.076;17.046;2023-12-20T02:48:34;99504.91;;;7.81;98.53
31717;BME280;18301;51.076;17.046;2023-12-20T02:53:35;99491.88;;;7.88;98.20
31717;BME280;18301;51.076;17.046;2023-12-20T02:58:37;99485.66;;;7.52;99.80
31717;BME280;18301;51.076;17.046;2023-12-20T03:03:38;99477.38;;;7.55;98.83
31717;BME280;18301;51.076;17.046;2023-12-20T03:08:40;99483.00;;;7.52;97.84
31717;BME280;18301;51.076;17.046;2023-12-20T03:13:42;99479.56;;;7.50;97.59
31717;BME280;18301;51.076;17.046;2023-12-20T03:18:44;99494.56;;;7.53;97.56
31717;BME280;18301;51.076;17.046;2023-12-20T03:23:45;99481.69;;;7.69;95.97
31717;BME280;18301;51.076;17.046;2023-12-20T03:28:47;99474.75;;;7.67;96.12
31717;BME280;18301;51.076;17.046;2023-12-20T03:33:49;99479.78;;;7.47;96.63
31717;BME280;18301;51.076;17.046;2023-12-20T03:38:54;99480.44;;;7.27;98.21
31717;BME280;18301;51.076;17.046;2023-12-20T03:43:55;99490.75;;;7.20;97.70
31717;BME280;18301;51.076;17.046;2023-12-20T03:48:57;99492.44;;;7.34;96.73
31717;BME280;18301;51.076;17.046;2023-12-20T03:54:01;99495.91;;;6.99;99.15
31717;BME280;18301;51.076;17.046;2023-12-20T03:59:02;99485.63;;;6.80;100.00
31717;BME280;18301;51.076;17.046;2023-12-20T04:04:04;99482.50;;;6.99;98.36
31717;BME280;18301;51.076;17.046;2023-12-20T04:09:06;99489.56;;;7.00;97.64
31717;BME280;18301;51.076;17.046;2023-12-20T04:14:10;99493.91;;;6.90;99.08
31717;BME280;18301;51.076;17.046;2023-12-20T04:19:12;99486.81;;;6.89;99.05
31717;BME280;18301;51.076;17.046;2023-12-20T04:24:14;99484.50;;;7.08;97.16
31717;BME280;18301;51.076;17.046;2023-12-20T04:29:15;99485.50;;;6.95;97.47
31717;BME280;18301;51.076;17.046;2023-12-20T04:34:17;99493.06;;;6.77;98.71
31717;BME280;18301;51.076;17.046;2023-12-20T04:39:19;99483.13;;;7.27;95.26
31717;BME280;18301;51.076;17.046;2023-12-20T04:44:21;99476.06;;;6.52;98.81
31717;BME280;18301;51.076;17.046;2023-12-20T04:49:22;99479.28;;;6.57;98.63
31717;BME280;18301;51.076;17.046;2023-12-20T04:54:24;99471.72;;;6.75;97.16
31717;BME280;18301;51.076;17.046;2023-12-20T04:59:26;99458.91;;;6.55;98.27
31717;BME280;18301;51.076;17.046;2023-12-20T05:04:27;99468.94;;;6.77;96.13
31717;BME280;18301;51.076;17.046;2023-12-20T05:09:29;99457.25;;;6.78;95.83
31717;BME280;18301;51.076;17.046;2023-12-20T05:14:31;99460.19;;;6.49;97.21
31717;BME280;18301;51.076;17.046;2023-12-20T05:19:32;99464.28;;;6.55;97.31
31717;BME280;18301;51.076;17.046;2023-12-20T05:24:37;99469.63;;;6.55;97.46
31717;BME280;18301;51.076;17.046;2023-12-20T05:29:38;99465.75;;;6.72;96.75
31717;BME280;18301;51.076;17.046;2023-12-20T05:34:40;99470.25;;;6.58;98.80
31717;BME280;18301;51.076;17.046;2023-12-20T05:39:42;99480.88;;;6.60;98.68
31717;BME280;18301;51.076;17.046;2023-12-20T05:44:43;99485.91;;;6.64;99.00
31717;BME280;18301;51.076;17.046;2023-12-20T05:49:45;99488.28;;;6.69;98.70
31717;BME280;18301;51.076;17.046;2023-12-20T05:54:47;99481.38;;;6.78;98.82
31717;BME280;18301;51.076;17.046;2023-12-20T05:59:49;99481.59;;;6.75;98.90
31717;BME280;18301;51.076;17.046;2023-12-20T06:04:50;99483.31;;;6.76;99.27
31717;BME280;18301;51.076;17.046;2023-12-20T06:09:52;99476.25;;;6.75;99.29
31717;BME280;18301;51.076;17.046;2023-12-20T06:14:54;99476.91;;;6.65;99.85
31717;BME280;18301;51.076;17.046;2023-12-20T06:19:57;99480.09;;;6.71;99.33
31717;BME280;18301;51.076;17.046;2023-12-20T06:24:59;99473.25;;;6.66;99.87
31717;BME280;18301;51.076;17.046;2023-12-20T06:30:01;99480.25;;;6.56;99.99
31717;BME280;18301;51.076;17.046;2023-12-20T06:35:02;99468.94;;;6.77;99.62
31717;BME280;18301;51.076;17.046;2023-12-20T06:40:07;99480.53;;;6.64;99.41
31717;BME280;18301;51.076;17.046;2023-12-20T06:45:17;99490.81;;;6.71;99.11
31717;BME280;18301;51.076;17.046;2023-12-20T06:50:19;99482.91;;;6.69;99.33
31717;BME280;18301;51.076;17.046;2023-12-20T06:55:21;99479.91;;;6.61;99.25
31717;BME280;18301;51.076;17.046;2023-12-20T07:00:22;99485.91;;;6.64;99.37
31717;BME280;18301;51.076;17.046;2023-12-20T07:05:24;99493.44;;;6.59;100.00
31717;BME280;18301;51.076;17.046;2023-12-20T07:10:26;99486.53;;;6.68;99.49
31717;BME280;18301;51.076;17.046;2023-12-20T07:15:27;99494.06;;;6.63;99.17
31717;BME280;18301;51.076;17.046;2023-12-20T07:20:31;99495.91;;;6.62;98.94
31717;BME280;18301;51.076;17.046;2023-12-20T07:25:32;99503.72;;;6.65;99.41
31717;BME280;18301;51.076;17.046;2023-12-20T07:30:34;99508.88;;;6.68;98.11
31717;BME280;18301;51.076;17.046;2023-12-20T07:35:36;99503.72;;;6.65;99.11
31717;BME280;18301;51.076;17.046;2023-12-20T07:40:38;99505.53;;;6.52;100.00
31717;BME280;18301;51.076;17.046;2023-12-20T07:45:40;99512.25;;;6.71;99.18
31717;BME280;18301;51.076;17.046;2023-12-20T07:50:42;99510.59;;;6.57;99.41
31717;BME280;18301;51.076;17.046;2023-12-20T07:55:44;99503.28;;;6.72;98.84
31717;BME280;18301;51.076;17.046;2023-12-20T08:00:46;99519.16;;;6.75;98.52
31717;BME280;18301;51.076;17.046;2023-12-20T08:05:48;99512.94;;;6.61;98.93
31717;BME280;18301;51.076;17.046;2023-12-20T08:10:49;99507.97;;;6.68;98.31
31717;BME280;18301;51.076;17.046;2023-12-20T08:15:52;99518.06;;;6.64;98.79
31717;BME280;18301;51.076;17.046;2023-12-20T08:20:53;99514.66;;;6.62;98.58
31717;BME280;18301;51.076;17.046;2023-12-20T08:25:55;99515.31;;;6.53;98.53
31717;BME280;18301;51.076;17.046;2023-12-20T08:30:57;99516.78;;;6.70;97.34
31717;BME280;18301;51.076;17.046;2023-12-20T08:35:58;99511.09;;;6.75;97.14
31717;BME280;18301;51.076;17.046;2023-12-20T08:41:00;99522.38;;;6.54;97.62
31717;BME280;18301;51.076;17.046;2023-12-20T08:46:03;99531.19;;;6.56;98.32
31717;BME280;18301;51.076;17.046;2023-12-20T08:51:05;99533.31;;;6.51;98.39
31717;BME280;18301;51.076;17.046;2023-12-20T08:56:10;99532.22;;;6.66;97.42
31717;BME280;18301;51.076;17.046;2023-12-20T09:01:12;99540.06;;;6.18;100.00
31717;BME280;18301;51.076;17.046;2023-12-20T09:06:14;99543.19;;;6.51;98.97
31717;BME280;18301;51.076;17.046;2023-12-20T09:11:15;99536.75;;;6.53;98.18
31717;BME280;18301;51.076;17.046;2023-12-20T09:16:19;99539.13;;;6.45;98.31
31717;BME280;18301;51.076;17.046;2023-12-20T09:21:21;99536.97;;;6.25;99.15
31717;BME280;18301;51.076;17.046;2023-12-20T09:26:23;99537.59;;;6.15;100.00
31717;BME280;18301;51.076;17.046;2023-12-20T09:31:25;99541.44;;;6.75;97.53
31717;BME280;18301;51.076;17.046;2023-12-20T09:36:27;99544.22;;;6.74;97.38
31717;BME280;18301;51.076;17.046;2023-12-20T09:41:31;99557.13;;;6.43;98.87
31717;BME280;18301;51.076;17.046;2023-12-20T09:46:37;99545.75;;;6.52;98.55
31717;BME280;18301;51.076;17.046;2023-12-20T09:51:41;99538.03;;;6.60;98.47
31717;BME280;18301;51.076;17.046;2023-12-20T09:56:44;99526.59;;;6.95;96.68
31717;BME280;18301;51.076;17.046;2023-12-20T10:01:48;99514.66;;;6.62;96.65
31717;BME280;18301;51.076;17.046;2023-12-20T10:06:50;99518.16;;;7.12;94.71
31717;BME280;18301;51.076;17.046;2023-12-20T10:11:54;99519.16;;;6.75;95.78
31717;BME280;18301;51.076;17.046;2023-12-20T10:17:02;99520.28;;;6.83;95.04
31717;BME280;18301;51.076;17.046;2023-12-20T10:22:05;99523.03;;;6.95;92.96
31717;BME280;18301;51.076;17.046;2023-12-20T10:27:08;99519.09;;;6.87;91.89
31717;BME280;18301;51.076;17.046;2023-12-20T10:32:26;99528.75;;;6.90;92.53
31717;BME280;18301;51.076;17.046;2023-12-20T10:37:28;99526.91;;;6.28;93.23
31717;BME280;18301;51.076;17.046;2023-12-20T10:42:30;99511.97;;;6.62;92.09
31717;BME280;18301;51.076;17.046;2023-12-20T10:47:32;99517.00;;;6.67;90.76
31717;BME280;18301;51.076;17.046;2023-12-20T10:52:36;99519.16;;;6.75;90.71
31717;BME280;18301;51.076;17.046;2023-12-20T10:57:38;99509.75;;;6.56;91.36
31717;BME280;18301;51.076;17.046;2023-12-20T11:02:40;99506.84;;;6.96;91.48
31717;BME280;18301;51.076;17.046;2023-12-20T11:07:48;99492.34;;;7.23;90.32
31717;BME280;18301;51.076;17.046;2023-12-20T11:13:00;99489.66;;;7.47;89.60
31717;BME280;18301;51.076;17.046;2023-12-20T11:18:05;99492.56;;;7.68;87.09
31717;BME280;18301;51.076;17.046;2023-12-20T11:23:09;99488.47;;;7.97;87.74
31717;BME280;18301;51.076;17.046;2023-12-20T11:28:11;99478.97;;;8.04;87.79
31717;BME280;18301;51.076;17.046;2023-12-20T11:33:14;99469.50;;;8.57;88.79
31717;BME280;18301;51.076;17.046;2023-12-20T11:38:19;99445.50;;;8.87;84.18
31717;BME280;18301;51.076;17.046;2023-12-20T11:43:52;99454.94;;;8.70;80.61
31717;BME280;18301;51.076;17.046;2023-12-20T11:48:54;99427.97;;;8.38;79.89
31717;BME280;18301;51.076;17.046;2023-12-20T11:53:56;99436.50;;;8.32;81.08
31717;BME280;18301;51.076;17.046;2023-12-20T11:58:58;99418.91;;;8.39;80.41
31717;BME280;18301;51.076;17.046;2023-12-20T12:04:19;99416.31;;;8.15;81.08
31717;BME280;18301;51.076;17.046;2023-12-20T12:09:21;99410.06;;;8.37;79.62
31717;BME280;18301;51.076;17.046;2023-12-20T12:14:23;99405.31;;;8.18;79.58
31717;BME280;18301;51.076;17.046;2023-12-20T12:19:26;99388.59;;;8.03;78.11
31717;BME280;18301;51.076;17.046;2023-12-20T12:24:28;99389.09;;;8.08;79.08
31717;BME280;18301;51.076;17.046;2023-12-20T12:29:29;99396.16;;;8.32;76.77
31717;BME280;18301;51.076;17.046;2023-12-20T12:34:31;99382.75;;;7.98;78.28
31717;BME280;18301;51.076;17.046;2023-12-20T12:39:34;99376.38;;;7.88;79.06
31717;BME280;18301;51.076;17.046;2023-12-20T12:44:35;99376.38;;;8.11;76.96
31717;BME280;18301;51.076;17.046;2023-12-20T12:49:37;99368.56;;;7.96;78.36
31717;BME280;18301;51.076;17.046;2023-12-20T12:54:39;99369.78;;;7.70;78.55
31717;BME280;18301;51.076;17.046;2023-12-20T12:59:42;99373.69;;;7.88;78.68
31717;BME280;18301;51.076;17.046;2023-12-20T13:04:43;99371.97;;;7.65;77.30
31717;BME280;18301;51.076;17.046;2023-12-20T13:09:45;99370.97;;;7.54;79.01
31717;BME280;18301;51.076;17.046;2023-12-20T13:14:47;99356.59;;;7.78;77.35
31717;BME280;18301;51.076;17.046;2023-12-20T13:19:49;99366.31;;;7.56;77.94
31717;BME280;18301;51.076;17.046;2023-12-20T13:24:51;99354.88;;;7.66;78.14
31717;BME280;18301;51.076;17.046;2023-12-20T13:29:53;99367.09;;;7.70;77.18
31717;BME280;18301;51.076;17.046;2023-12-20T13:34:55;99384.88;;;7.48;79.38
31717;BME280;18301;51.076;17.046;2023-12-20T13:39:57;99365.91;;;7.85;77.55
31717;BME280;18301;51.076;17.046;2023-12-20T13:44:59;99377.78;;;7.47;77.47
31717;BME280;18301;51.076;17.046;2023-12-20T13:50:00;99354.88;;;7.66;77.94
31717;BME280;18301;51.076;17.046;2023-12-20T13:55:02;99352.56;;;7.83;76.62
31717;BME280;18301;51.076;17.046;2023-12-20T14:00:07;99356.47;;;7.68;77.25
31717;BME280;18301;51.076;17.046;2023-12-20T14:05:16;99354.16;;;7.75;76.94
31717;BME280;18301;51.076;17.046;2023-12-20T14:10:25;99334.88;;;7.70;75.66
31717;BME280;18301;51.076;17.046;2023-12-20T14:15:28;99335.44;;;7.51;75.18
31717;BME280;18301;51.076;17.046;2023-12-20T14:20:29;99338.78;;;7.54;75.57
31717;BME280;18301;51.076;17.046;2023-12-20T14:25:31;99344.59;;;7.59;75.00
31717;BME280;18301;51.076;17.046;2023-12-20T14:30:46;99337.03;;;7.42;74.93
31717;BME280;18301;51.076;17.046;2023-12-20T14:35:48;99348.25;;;7.47;74.33
31717;BME280;18301;51.076;17.046;2023-12-20T14:40:50;99343.66;;;7.60;75.44
31717;BME280;18301;51.076;17.046;2023-12-20T14:45:52;99341.94;;;7.59;73.90
31717;BME280;18301;51.076;17.046;2023-12-20T14:50:54;99328.13;;;7.53;75.31
31717;BME280;18301;51.076;17.046;2023-12-20T14:55:55;99322.91;;;7.63;73.19
31717;BME280;18301;51.076;17.046;2023-12-20T15:00:57;99328.75;;;7.56;74.10
31717;BME280;18301;51.076;17.046;2023-12-20T15:05:59;99322.91;;;7.63;73.32
31717;BME280;18301;51.076;17.046;2023-12-20T15:11:01;99320.94;;;7.42;74.31
31717;BME280;18301;51.076;17.046;2023-12-20T15:16:05;99315.31;;;7.45;73.07
31717;BME280;18301;51.076;17.046;2023-12-20T15:21:07;99311.16;;;7.41;72.52
31717;BME280;18301;51.076;17.046;2023-12-20T15:26:09;99303.75;;;7.67;71.99
31717;BME280;18301;51.076;17.046;2023-12-20T15:31:11;99299.47;;;7.65;72.24
31717;BME280;18301;51.076;17.046;2023-12-20T15:36:13;99294.22;;;7.63;71.55
31717;BME280;18301;51.076;17.046;2023-12-20T15:41:19;99289.22;;;7.36;71.93
31717;BME280;18301;51.076;17.046;2023-12-20T15:46:21;99289.69;;;7.30;72.22
31717;BME280;18301;51.076;17.046;2023-12-20T15:51:23;99289.91;;;7.38;72.40
31717;BME280;18301;51.076;17.046;2023-12-20T15:56:26;99289.94;;;7.27;72.52
31717;BME280;18301;51.076;17.046;2023-12-20T16:01:29;99283.06;;;7.23;73.78
31717;BME280;18301;51.076;17.046;2023-12-20T16:06:32;99280.03;;;7.27;73.25
31717;BME280;18301;51.076;17.046;2023-12-20T16:11:36;99268.84;;;7.33;71.95
31717;BME280;18301;51.076;17.046;2023-12-20T16:16:37;99262.13;;;7.50;71.59
31717;BME280;18301;51.076;17.046;2023-12-20T16:21:39;99260.63;;;7.12;72.36
31717;BME280;18301;51.076;17.046;2023-12-20T16:26:42;99270.50;;;7.23;72.12
31717;BME280;18301;51.076;17.046;2023-12-20T16:31:43;99285.03;;;7.32;72.21
31717;BME280;18301;51.076;17.046;2023-12-20T16:36:53;99276.13;;;7.31;72.28
31717;BME280;18301;51.076;17.046;2023-12-20T16:41:56;99260.53;;;7.25;72.37
31717;BME280;18301;51.076;17.046;2023-12-20T16:46:58;99264.56;;;7.42;71.89
31717;BME280;18301;51.076;17.046;2023-12-20T16:52:00;99257.25;;;7.33;71.79
31717;BME280;18301;51.076;17.046;2023-12-20T16:57:05;99248.94;;;7.47;71.67
31717;BME280;18301;51.076;17.046;2023-12-20T17:02:07;99250.75;;;7.35;71.89
31717;BME280;18301;51.076;17.046;2023-12-20T17:07:09;99251.63;;;7.25;71.87
31717;BME280;18301;51.076;17.046;2023-12-20T17:12:10;99246.63;;;7.31;72.64
31717;BME280;18301;51.076;17.046;2023-12-20T17:17:12;99234.16;;;7.42;71.75
31717;BME280;18301;51.076;17.046;2023-12-20T17:22:14;99249.94;;;7.46;71.11
31717;BME280;18301;51.076;17.046;2023-12-20T17:27:15;99252.44;;;7.14;71.25
31717;BME280;18301;51.076;17.046;2023-12-20T17:32:17;99231.63;;;7.40;70.85
31717;BME280;18301;51.076;17.046;2023-12-20T17:37:19;99221.88;;;7.39;69.96
31717;BME280;18301;51.076;17.046;2023-12-20T17:42:21;99229.19;;;7.48;70.45
31717;BME280;18301;51.076;17.046;2023-12-20T17:47:23;99234.56;;;7.48;70.41
31717;BME280;18301;51.076;17.046;2023-12-20T17:52:25;99241.16;;;7.33;70.94
31717;BME280;18301;51.076;17.046;2023-12-20T17:57:26;99253.31;;;7.59;70.26
31717;BME280;18301;51.076;17.046;2023-12-20T18:02:28;99263.47;;;7.56;70.24
31717;BME280;18301;51.076;17.046;2023-12-20T18:07:30;99258.94;;;7.56;70.27
31717;BME280;18301;51.076;17.046;2023-12-20T18:12:31;99252.13;;;7.52;70.58
31717;BME280;18301;51.076;17.046;2023-12-20T18:17:35;99268.25;;;7.64;70.49
31717;BME280;18301;51.076;17.046;2023-12-20T18:22:36;99259.66;;;7.25;71.59
31717;BME280;18301;51.076;17.046;2023-12-20T18:27:40;99265.88;;;7.25;71.63
31717;BME280;18301;51.076;17.046;2023-12-20T18:32:41;99280.66;;;7.31;71.34
31717;BME280;18301;51.076;17.046;2023-12-20T18:37:43;99295.97;;;7.06;72.49
31717;BME280;18301;51.076;17.046;2023-12-20T18:42:45;99296.63;;;7.21;72.01
31717;BME280;18301;51.076;17.046;2023-12-20T18:47:47;99264.56;;;7.31;71.90
31717;BME280;18301;51.076;17.046;2023-12-20T18:52:49;99283.56;;;7.28;72.63
31717;BME280;18301;51.076;17.046;2023-12-20T18:57:51;99301.13;;;7.21;72.64
31717;BME280;18301;51.076;17.046;2023-12-20T19:02:53;99292.38;;;7.30;73.18
31717;BME280;18301;51.076;17.046;2023-12-20T19:07:55;99305.94;;;7.04;75.16
31717;BME280;18301;51.076;17.046;2023-12-20T19:12:57;99288.63;;;6.97;75.66
31717;BME280;18301;51.076;17.046;2023-12-20T19:17:59;99326.97;;;6.86;77.07
31717;BME280;18301;51.076;17.046;2023-12-20T19:23:01;99324.00;;;7.02;76.33
31717;BME280;18301;51.076;17.046;2023-12-20T19:28:02;99323.75;;;6.70;77.56
31717;BME280;18301;51.076;17.046;2023-12-20T19:33:04;99333.41;;;6.73;77.61
31717;BME280;18301;51.076;17.046;2023-12-20T19:38:06;99324.72;;;6.45;79.26
31717;BME280;18301;51.076;17.046;2023-12-20T19:43:08;99335.75;;;6.53;79.27
31717;BME280;18301;51.076;17.046;2023-12-20T19:48:10;99342.06;;;6.52;79.38
31717;BME280;18301;51.076;17.046;2023-12-20T19:53:11;99343.78;;;6.53;80.09
31717;BME280;18301;51.076;17.046;2023-12-20T19:58:13;99352.78;;;6.52;80.05
31717;BME280;18301;51.076;17.046;2023-12-20T20:03:15;99344.00;;;6.50;80.43
31717;BME280;18301;51.076;17.046;2023-12-20T20:08:17;99341.88;;;6.42;81.35
31717;BME280;18301;51.076;17.046;2023-12-20T20:13:18;99343.41;;;6.34;81.89
31717;BME280;18301;51.076;17.046;2023-12-20T20:18:20;99337.47;;;6.17;82.31
31717;BME280;18301;51.076;17.046;2023-12-20T20:23:22;99339.31;;;6.41;81.13
31717;BME280;18301;51.076;17.046;2023-12-20T20:28:23;99344.09;;;6.49;81.08
31717;BME280;18301;51.076;17.046;2023-12-20T20:33:29;99344.06;;;6.61;80.58
31717;BME280;18301;51.076;17.046;2023-12-20T20:38:32;99339.81;;;6.46;81.59
31717;BME280;18301;51.076;17.046;2023-12-20T20:43:33;99348.38;;;6.51;81.92
31717;BME280;18301;51.076;17.046;2023-12-20T20:48:35;99336.56;;;6.30;83.19
31717;BME280;18301;51.076;17.046;2023-12-20T20:53:51;99346.78;;;6.49;84.32
31717;BME280;18301;51.076;17.046;2023-12-20T20:59:08;99340.13;;;6.54;84.57
31717;BME280;18301;51.076;17.046;2023-12-20T21:04:10;99328.94;;;6.60;84.81
31717;BME280;18301;51.076;17.046;2023-12-20T21:09:12;99334.13;;;6.27;87.85
31717;BME280;18301;51.076;17.046;2023-12-20T21:14:14;99328.94;;;5.99;90.96
31717;BME280;18301;51.076;17.046;2023-12-20T21:19:16;99327.19;;;6.11;88.56
31717;BME280;18301;51.076;17.046;2023-12-20T21:24:17;99325.78;;;6.18;89.76
31717;BME280;18301;51.076;17.046;2023-12-20T21:29:19;99318.56;;;6.32;88.33
31717;BME280;18301;51.076;17.046;2023-12-20T21:34:21;99312.31;;;6.44;88.38
31717;BME280;18301;51.076;17.046;2023-12-20T21:39:23;99312.47;;;6.54;88.12
31717;BME280;18301;51.076;17.046;2023-12-20T21:44:26;99308.13;;;6.64;86.71
31717;BME280;18301;51.076;17.046;2023-12-20T21:49:28;99296.41;;;6.65;86.44
31717;BME280;18301;51.076;17.046;2023-12-20T21:54:30;99300.75;;;6.79;85.36
31717;BME280;18301;51.076;17.046;2023-12-20T21:59:31;99295.13;;;6.71;85.18
31717;BME280;18301;51.076;17.046;2023-12-20T22:04:33;99292.66;;;6.67;85.26
31717;BME280;18301;51.076;17.046;2023-12-20T22:09:35;99284.91;;;6.76;85.01
31717;BME280;18301;51.076;17.046;2023-12-20T22:14:37;99287.13;;;6.82;84.76
31717;BME280;18301;51.076;17.046;2023-12-20T22:19:38;99278.09;;;6.83;84.41
31717;BME280;18301;51.076;17.046;2023-12-20T22:24:41;99273.72;;;6.82;83.66
31717;BME280;18301;51.076;17.046;2023-12-20T22:29:42;99270.97;;;6.71;83.52
31717;BME280;18301;51.076;17.046;2023-12-20T22:34:44;99269.06;;;6.73;83.21
31717;BME280;18301;51.076;17.046;2023-12-20T22:39:46;99271.53;;;6.87;81.25
31717;BME280;18301;51.076;17.046;2023-12-20T22:44:47;99277.00;;;6.85;80.75
31717;BME280;18301;51.076;17.046;2023-12-20T22:49:53;99269.16;;;6.71;79.92
31717;BME280;18301;51.076;17.046;2023-12-20T22:54:55;99259.50;;;6.57;81.73
31717;BME280;18301;51.076;17.046;2023-12-20T22:59:57;99257.84;;;6.79;81.82
31717;BME280;18301;51.076;17.046;2023-12-20T23:04:59;99247.06;;;6.56;82.88
31717;BME280;18301;51.076;17.046;2023-12-20T23:10:00;99234.75;;;6.30;85.72
31717;BME280;18301;51.076;17.046;2023-12-20T23:15:04;99205.19;;;6.31;85.94
31717;BME280;18301;51.076;17.046;2023-12-20T23:20:07;99204.31;;;6.31;85.20
31717;BME280;18301;51.076;17.046;2023-12-20T23:25:08;99195.16;;;6.22;86.34
31717;BME280;18301;51.076;17.046;2023-12-20T23:30:10;99180.41;;;6.16;87.84
31717;BME280;18301;51.076;17.046;2023-12-20T23:35:12;99170.03;;;6.12;87.89
31717;BME280;18301;51.076;17.046;2023-12-20T23:40:17;99156.47;;;6.02;88.10
31717;BME280;18301;51.076;17.046;2023-12-20T23:45:19;99167.47;;;6.10;89.09
31717;BME280;18301;51.076;17.046;2023-12-20T23:50:20;99157.72;;;6.09;88.71
31717;BME280;18301;51.076;17.046;2023-12-20T23:55:22;99138.50;;;6.15;88.68
